Strona główna
METAR-TAF:

METAR-TAF

Lotnisko :

Albert, Francja

Szerokość geograficzna: 49-58-21N, Długość geograficzna: 002-41-29E, wysokość: 111 m

Aktualna obserwacja pogody

Raport powstał 22 minut temu, godzina 01:00 UTC
Cisza
Temperatura -1°C
Wilgotność 100%
Ciśnienie 1029 hPa
Widzialność: 0650 m
marznąca mgła

METAR: LFAQ 250100Z AUTO 00000KT 0650 R27/1000U FZFG VV/// M01/M01 Q1029

czas: 02:22 (01:22 UTC)

Prognoza

Raport powstał 11 godziny i 22 minut temu, godzina 14:00 UTC
Prognoza ważna od 24 godzina 15 UTC do 24 godzina 24 UTC
Wiatr 2 kt z kierunków zmiennych
Widzialność: 0200 m
mgła
Stopniowe zmiany
od 24 godzina 15 UTC do 24 godzina 18 UTC
marznąca mgła

TAF: LFAQ 241400Z 2415/2424 VRB02KT 0200 FG VV/// BECMG 2415/2418 FZFG

Obserwacja i prognoza pogody dla ponad 4000 lotnisk (raport METAR i TAF).

Dostępne stacje oznaczono żółtymi i czerwonymi punktami na mapie.

Najedź kursorem aby zobaczyć nazwę stacji.

Kliknij aby zobaczyć obserwacje i prognozy pogody.

Aby zmienić mapę: kliknij na zielony przycisk z czarnym krzyżykiem, aby powiększyć; na zielony przycisk z myślnikiem, aby pomniejszyć; na zielone strzałki, aby przejść do map sąsiednich.


METAR-TAF: